sensor_id;sensor_type;location;lat;lon;timestamp;pressure;altitude;pressure_sealevel;temperature;humidity
34177;BME280;20450;49.074;9.158;2023-05-09T00:01:41;100066.34;;;15.77;84.04
34177;BME280;20450;49.074;9.158;2023-05-09T00:04:08;100059.34;;;15.81;83.56
34177;BME280;20450;49.074;9.158;2023-05-09T00:06:35;100062.66;;;15.83;83.36
34177;BME280;20450;49.074;9.158;2023-05-09T00:09:02;100059.69;;;15.84;82.95
34177;BME280;20450;49.074;9.158;2023-05-09T00:11:30;100056.13;;;15.84;83.27
34177;BME280;20450;49.074;9.158;2023-05-09T00:13:57;100056.75;;;15.86;83.10
34177;BME280;20450;49.074;9.158;2023-05-09T00:16:24;100049.88;;;15.83;83.02
34177;BME280;20450;49.074;9.158;2023-05-09T00:18:52;100050.47;;;15.73;83.18
34177;BME280;20450;49.074;9.158;2023-05-09T00:21:19;100046.44;;;15.41;83.58
34177;BME280;20450;49.074;9.158;2023-05-09T00:23:46;100042.53;;;15.37;84.06
34177;BME280;20450;49.074;9.158;2023-05-09T00:26:13;100039.56;;;15.27;84.13
34177;BME280;20450;49.074;9.158;2023-05-09T00:28:42;100044.28;;;15.20;84.50
34177;BME280;20450;49.074;9.158;2023-05-09T00:31:09;100042.75;;;15.24;84.16
34177;BME280;20450;49.074;9.158;2023-05-09T00:33:36;100039.09;;;15.30;83.65
34177;BME280;20450;49.074;9.158;2023-05-09T00:36:04;100034.81;;;15.34;83.66
34177;BME280;20450;49.074;9.158;2023-05-09T00:38:32;100031.66;;;15.37;83.54
34177;BME280;20450;49.074;9.158;2023-05-09T00:40:59;100027.50;;;15.35;83.38
34177;BME280;20450;49.074;9.158;2023-05-09T00:43:26;100032.09;;;15.34;83.82
34177;BME280;20450;49.074;9.158;2023-05-09T00:45:53;100031.84;;;15.36;84.01
34177;BME280;20450;49.074;9.158;2023-05-09T00:48:21;100019.97;;;15.37;83.69
34177;BME280;20450;49.074;9.158;2023-05-09T00:50:47;100012.81;;;15.24;83.59
34177;BME280;20450;49.074;9.158;2023-05-09T00:53:16;100015.63;;;15.06;85.32
34177;BME280;20450;49.074;9.158;2023-05-09T00:55:43;100006.63;;;14.94;86.22
34177;BME280;20450;49.074;9.158;2023-05-09T00:58:11;100003.19;;;14.87;86.65
34177;BME280;20450;49.074;9.158;2023-05-09T01:00:39;100006.38;;;14.84;87.32
34177;BME280;20450;49.074;9.158;2023-05-09T01:03:06;99999.94;;;14.67;87.70
34177;BME280;20450;49.074;9.158;2023-05-09T01:05:39;99996.63;;;14.65;88.06
34177;BME280;20450;49.074;9.158;2023-05-09T01:08:29;99999.22;;;14.72;88.01
34177;BME280;20450;49.074;9.158;2023-05-09T01:11:10;99990.50;;;14.81;87.69
34177;BME280;20450;49.074;9.158;2023-05-09T01:13:51;99996.19;;;14.91;87.48
34177;BME280;20450;49.074;9.158;2023-05-09T01:16:33;100000.00;;;15.02;86.99
34177;BME280;20450;49.074;9.158;2023-05-09T01:19:13;99982.50;;;15.09;86.46
34177;BME280;20450;49.074;9.158;2023-05-09T01:22:06;99990.31;;;15.17;86.26
34177;BME280;20450;49.074;9.158;2023-05-09T01:25:07;99987.59;;;15.17;85.66
34177;BME280;20450;49.074;9.158;2023-05-09T01:27:50;99986.31;;;15.08;86.17
34177;BME280;20450;49.074;9.158;2023-05-09T01:30:27;99984.00;;;14.94;86.20
34177;BME280;20450;49.074;9.158;2023-05-09T01:32:59;99977.63;;;14.88;86.83
34177;BME280;20450;49.074;9.158;2023-05-09T01:35:50;99983.78;;;14.84;87.24
34177;BME280;20450;49.074;9.158;2023-05-09T01:38:24;99981.97;;;14.78;87.21
34177;BME280;20450;49.074;9.158;2023-05-09T01:40:59;99987.66;;;14.76;87.69
34177;BME280;20450;49.074;9.158;2023-05-09T01:43:28;99975.03;;;14.82;87.59
34177;BME280;20450;49.074;9.158;2023-05-09T01:45:59;99976.59;;;14.89;87.83
34177;BME280;20450;49.074;9.158;2023-05-09T01:48:30;99971.16;;;15.01;87.38
34177;BME280;20450;49.074;9.158;2023-05-09T01:51:02;99968.28;;;15.07;86.94
34177;BME280;20450;49.074;9.158;2023-05-09T01:53:31;99963.13;;;15.17;86.65
34177;BME280;20450;49.074;9.158;2023-05-09T01:56:03;99974.69;;;15.24;86.54
34177;BME280;20450;49.074;9.158;2023-05-09T01:58:32;99968.31;;;15.30;86.14
34177;BME280;20450;49.074;9.158;2023-05-09T02:05:55;99970.31;;;15.35;85.92
34177;BME280;20450;49.074;9.158;2023-05-09T02:08:40;99973.38;;;15.27;85.56
34177;BME280;20450;49.074;9.158;2023-05-09T02:11:14;99970.78;;;14.97;85.21
34177;BME280;20450;49.074;9.158;2023-05-09T02:18:28;99965.72;;;15.12;86.15
34177;BME280;20450;49.074;9.158;2023-05-09T02:20:56;99964.28;;;15.21;85.95
34177;BME280;20450;49.074;9.158;2023-05-09T02:23:24;99973.16;;;15.28;85.60
34177;BME280;20450;49.074;9.158;2023-05-09T02:25:51;99970.31;;;15.35;85.00
34177;BME280;20450;49.074;9.158;2023-05-09T02:28:19;99970.47;;;15.40;84.93
34177;BME280;20450;49.074;9.158;2023-05-09T02:30:49;99968.69;;;15.45;84.74
34177;BME280;20450;49.074;9.158;2023-05-09T02:33:18;99969.88;;;15.49;84.28
34177;BME280;20450;49.074;9.158;2023-05-09T02:35:45;99961.81;;;15.43;84.07
34177;BME280;20450;49.074;9.158;2023-05-09T02:38:14;99960.84;;;15.03;84.56
34177;BME280;20450;49.074;9.158;2023-05-09T02:40:42;99948.78;;;15.10;84.42
34177;BME280;20450;49.074;9.158;2023-05-09T02:43:09;99954.94;;;15.17;84.76
34177;BME280;20450;49.074;9.158;2023-05-09T02:45:36;99946.91;;;14.99;84.88
34177;BME280;20450;49.074;9.158;2023-05-09T02:48:04;99953.63;;;14.85;85.69
34177;BME280;20450;49.074;9.158;2023-05-09T02:50:34;99951.50;;;14.87;85.63
34177;BME280;20450;49.074;9.158;2023-05-09T02:53:01;99941.22;;;15.01;85.35
34177;BME280;20450;49.074;9.158;2023-05-09T02:55:30;99940.63;;;15.10;85.18
34177;BME280;20450;49.074;9.158;2023-05-09T02:57:56;99946.31;;;15.20;85.28
34177;BME280;20450;49.074;9.158;2023-05-09T03:00:39;99947.13;;;15.32;84.60
34177;BME280;20450;49.074;9.158;2023-05-09T03:03:07;99934.81;;;15.41;84.68
34177;BME280;20450;49.074;9.158;2023-05-09T03:05:34;99941.22;;;15.47;84.12
34177;BME280;20450;49.074;9.158;2023-05-09T03:16:53;99942.63;;;14.92;83.10
34177;BME280;20450;49.074;9.158;2023-05-09T03:19:32;99937.75;;;14.71;83.68
34177;BME280;20450;49.074;9.158;2023-05-09T03:22:04;99937.44;;;14.79;84.35
34177;BME280;20450;49.074;9.158;2023-05-09T03:24:36;99930.34;;;14.89;83.64
34177;BME280;20450;49.074;9.158;2023-05-09T03:30:31;99934.13;;;15.11;83.77
34177;BME280;20450;49.074;9.158;2023-05-09T03:32:58;99935.75;;;15.24;83.38
34177;BME280;20450;49.074;9.158;2023-05-09T03:35:25;99926.78;;;15.35;82.95
34177;BME280;20450;49.074;9.158;2023-05-09T03:37:53;99926.53;;;15.13;82.14
34177;BME280;20450;49.074;9.158;2023-05-09T03:40:20;99916.03;;;15.17;82.27
34177;BME280;20450;49.074;9.158;2023-05-09T03:42:54;99922.31;;;15.17;82.14
34177;BME280;20450;49.074;9.158;2023-05-09T03:45:21;99918.63;;;15.23;82.78
34177;BME280;20450;49.074;9.158;2023-05-09T03:47:49;99923.22;;;15.34;82.37
34177;BME280;20450;49.074;9.158;2023-05-09T03:50:17;99920.66;;;15.39;82.31
34177;BME280;20450;49.074;9.158;2023-05-09T03:52:45;99912.09;;;15.47;82.02
34177;BME280;20450;49.074;9.158;2023-05-09T03:55:14;99912.44;;;15.51;81.96
34177;BME280;20450;49.074;9.158;2023-05-09T03:58:07;99920.81;;;15.61;81.29
34177;BME280;20450;49.074;9.158;2023-05-09T04:00:39;99919.84;;;15.67;81.50
34177;BME280;20450;49.074;9.158;2023-05-09T04:03:14;99924.38;;;15.61;81.32
34177;BME280;20450;49.074;9.158;2023-05-09T04:05:45;99923.66;;;15.66;81.25
34177;BME280;20450;49.074;9.158;2023-05-09T04:08:22;99916.41;;;15.71;80.95
34177;BME280;20450;49.074;9.158;2023-05-09T04:10:49;99924.75;;;15.65;80.75
34177;BME280;20450;49.074;9.158;2023-05-09T04:13:17;99916.56;;;15.65;80.50
34177;BME280;20450;49.074;9.158;2023-05-09T04:15:44;99915.06;;;15.57;80.86
34177;BME280;20450;49.074;9.158;2023-05-09T04:18:13;99915.50;;;15.66;80.81
34177;BME280;20450;49.074;9.158;2023-05-09T04:20:40;99915.38;;;15.73;80.58
34177;BME280;20450;49.074;9.158;2023-05-09T04:23:07;99913.13;;;15.69;80.20
34177;BME280;20450;49.074;9.158;2023-05-09T04:25:34;99916.44;;;15.60;80.37
34177;BME280;20450;49.074;9.158;2023-05-09T04:28:02;99916.34;;;15.55;80.74
34177;BME280;20450;49.074;9.158;2023-05-09T04:30:29;99915.84;;;15.69;79.48
34177;BME280;20450;49.074;9.158;2023-05-09T04:32:57;99917.28;;;15.60;79.67
34177;BME280;20450;49.074;9.158;2023-05-09T04:35:28;99918.25;;;15.20;80.28
34177;BME280;20450;49.074;9.158;2023-05-09T04:37:56;99918.50;;;14.95;81.34
34177;BME280;20450;49.074;9.158;2023-05-09T04:40:24;99920.03;;;14.91;81.92
34177;BME280;20450;49.074;9.158;2023-05-09T04:42:56;99919.22;;;14.91;82.12
34177;BME280;20450;49.074;9.158;2023-05-09T04:45:26;99923.84;;;14.90;82.46
34177;BME280;20450;49.074;9.158;2023-05-09T04:47:57;99924.44;;;15.04;82.38
34177;BME280;20450;49.074;9.158;2023-05-09T04:50:24;99919.56;;;15.17;82.34
34177;BME280;20450;49.074;9.158;2023-05-09T04:52:52;99913.41;;;15.33;81.43
34177;BME280;20450;49.074;9.158;2023-05-09T04:55:19;99917.69;;;15.41;80.64
34177;BME280;20450;49.074;9.158;2023-05-09T04:57:48;99912.09;;;15.47;80.22
34177;BME280;20450;49.074;9.158;2023-05-09T05:00:15;99919.53;;;15.63;80.50
34177;BME280;20450;49.074;9.158;2023-05-09T05:02:45;99916.16;;;15.73;79.20
34177;BME280;20450;49.074;9.158;2023-05-09T05:05:13;99915.78;;;15.41;80.21
34177;BME280;20450;49.074;9.158;2023-05-09T05:07:41;99914.94;;;15.52;80.61
34177;BME280;20450;49.074;9.158;2023-05-09T05:10:12;99919.72;;;15.73;81.85
34177;BME280;20450;49.074;9.158;2023-05-09T05:12:43;99914.84;;;15.87;81.89
34177;BME280;20450;49.074;9.158;2023-05-09T05:15:12;99910.41;;;15.98;81.99
34177;BME280;20450;49.074;9.158;2023-05-09T05:17:41;99905.75;;;16.10;81.70
34177;BME280;20450;49.074;9.158;2023-05-09T05:20:09;99909.25;;;16.22;81.71
34177;BME280;20450;49.074;9.158;2023-05-09T05:22:41;99906.69;;;16.32;80.94
34177;BME280;20450;49.074;9.158;2023-05-09T05:25:08;99904.97;;;16.42;80.68
34177;BME280;20450;49.074;9.158;2023-05-09T05:27:38;99899.97;;;16.51;79.94
34177;BME280;20450;49.074;9.158;2023-05-09T05:30:07;99903.28;;;16.53;77.79
34177;BME280;20450;49.074;9.158;2023-05-09T05:32:35;99907.00;;;16.19;77.14
34177;BME280;20450;49.074;9.158;2023-05-09T05:35:03;99903.66;;;16.00;77.72
34177;BME280;20450;49.074;9.158;2023-05-09T05:37:34;99903.69;;;16.17;77.93
34177;BME280;20450;49.074;9.158;2023-05-09T05:40:01;99908.81;;;16.30;77.30
34177;BME280;20450;49.074;9.158;2023-05-09T05:42:29;99896.19;;;16.40;77.76
34177;BME280;20450;49.074;9.158;2023-05-09T05:44:57;99901.47;;;16.58;77.93
34177;BME280;20450;49.074;9.158;2023-05-09T05:47:24;99895.41;;;16.73;77.10
34177;BME280;20450;49.074;9.158;2023-05-09T05:49:52;99896.16;;;16.85;76.67
34177;BME280;20450;49.074;9.158;2023-05-09T05:52:19;99894.16;;;16.97;76.73
34177;BME280;20450;49.074;9.158;2023-05-09T05:54:46;99892.09;;;17.04;76.22
34177;BME280;20450;49.074;9.158;2023-05-09T05:57:13;99887.84;;;17.13;75.70
34177;BME280;20450;49.074;9.158;2023-05-09T05:59:40;99884.69;;;17.21;75.89
34177;BME280;20450;49.074;9.158;2023-05-09T06:02:08;99888.91;;;17.28;74.72
34177;BME280;20450;49.074;9.158;2023-05-09T06:04:35;99887.31;;;17.32;73.58
34177;BME280;20450;49.074;9.158;2023-05-09T06:07:02;99880.84;;;17.38;73.24
34177;BME280;20450;49.074;9.158;2023-05-09T06:09:29;99881.25;;;17.47;73.08
34177;BME280;20450;49.074;9.158;2023-05-09T06:11:56;99886.28;;;17.55;72.75
34177;BME280;20450;49.074;9.158;2023-05-09T06:14:24;99883.41;;;17.67;72.58
34177;BME280;20450;49.074;9.158;2023-05-09T06:16:53;99880.00;;;17.76;72.54
34177;BME280;20450;49.074;9.158;2023-05-09T06:19:21;99875.22;;;17.88;71.51
34177;BME280;20450;49.074;9.158;2023-05-09T06:21:48;99868.81;;;18.04;71.94
34177;BME280;20450;49.074;9.158;2023-05-09T06:24:15;99871.97;;;18.18;71.07
34177;BME280;20450;49.074;9.158;2023-05-09T06:27:02;99873.00;;;18.38;69.86
34177;BME280;20450;49.074;9.158;2023-05-09T06:29:29;99872.56;;;18.51;69.47
34177;BME280;20450;49.074;9.158;2023-05-09T06:31:58;99878.41;;;18.60;68.73
34177;BME280;20450;49.074;9.158;2023-05-09T06:34:27;99859.88;;;17.87;69.44
34177;BME280;20450;49.074;9.158;2023-05-09T06:36:54;99857.97;;;17.88;71.11
34177;BME280;20450;49.074;9.158;2023-05-09T06:39:21;99853.97;;;17.95;69.59
34177;BME280;20450;49.074;9.158;2023-05-09T06:41:47;99852.59;;;17.98;69.81
34177;BME280;20450;49.074;9.158;2023-05-09T06:44:23;99858.06;;;18.24;70.11
34177;BME280;20450;49.074;9.158;2023-05-09T06:46:50;99853.94;;;18.48;69.57
34177;BME280;20450;49.074;9.158;2023-05-09T06:49:17;99847.81;;;17.83;68.53
34177;BME280;20450;49.074;9.158;2023-05-09T06:51:45;99843.63;;;17.32;71.24
34177;BME280;20450;49.074;9.158;2023-05-09T06:54:12;99845.53;;;17.75;71.68
34177;BME280;20450;49.074;9.158;2023-05-09T06:56:39;99843.63;;;18.55;69.79
34177;BME280;20450;49.074;9.158;2023-05-09T06:59:06;99842.13;;;19.16;66.35
34177;BME280;20450;49.074;9.158;2023-05-09T07:01:33;99840.50;;;19.87;64.92
34177;BME280;20450;49.074;9.158;2023-05-09T07:03:59;99846.16;;;18.35;66.66
34177;BME280;20450;49.074;9.158;2023-05-09T07:06:26;99846.34;;;18.29;68.63
34177;BME280;20450;49.074;9.158;2023-05-09T07:08:54;99836.47;;;17.70;70.00
34177;BME280;20450;49.074;9.158;2023-05-09T07:11:21;99838.91;;;17.66;69.62
34177;BME280;20450;49.074;9.158;2023-05-09T07:13:48;99834.06;;;18.00;69.39
34177;BME280;20450;49.074;9.158;2023-05-09T07:16:16;99837.25;;;18.18;67.79
34177;BME280;20450;49.074;9.158;2023-05-09T07:18:44;99827.53;;;17.52;71.18
34177;BME280;20450;49.074;9.158;2023-05-09T07:21:11;99832.81;;;17.42;72.55
34177;BME280;20450;49.074;9.158;2023-05-09T07:23:38;99825.84;;;17.51;71.83
34177;BME280;20450;49.074;9.158;2023-05-09T07:26:06;99821.31;;;18.10;70.58
34177;BME280;20450;49.074;9.158;2023-05-09T07:28:34;99817.94;;;18.30;69.29
34177;BME280;20450;49.074;9.158;2023-05-09T07:31:00;99814.22;;;18.14;69.16
34177;BME280;20450;49.074;9.158;2023-05-09T07:33:27;99807.97;;;18.45;68.01
34177;BME280;20450;49.074;9.158;2023-05-09T07:35:57;99801.16;;;18.48;67.57
34177;BME280;20450;49.074;9.158;2023-05-09T07:38:24;99806.94;;;18.25;68.09
34177;BME280;20450;49.074;9.158;2023-05-09T07:40:51;99796.91;;;18.67;66.64
34177;BME280;20450;49.074;9.158;2023-05-09T07:43:19;99796.91;;;18.67;66.64
34177;BME280;20450;49.074;9.158;2023-05-09T07:45:46;99797.81;;;18.82;66.50
34177;BME280;20450;49.074;9.158;2023-05-09T07:48:13;99795.69;;;18.94;66.69
34177;BME280;20450;49.074;9.158;2023-05-09T07:50:40;99784.78;;;18.99;65.84
34177;BME280;20450;49.074;9.158;2023-05-09T07:53:07;99779.53;;;18.93;66.38
34177;BME280;20450;49.074;9.158;2023-05-09T07:55:35;99768.53;;;18.83;66.11
34177;BME280;20450;49.074;9.158;2023-05-09T07:58:01;99760.28;;;18.78;65.97
34177;BME280;20450;49.074;9.158;2023-05-09T08:00:31;99760.50;;;18.66;65.75
34177;BME280;20450;49.074;9.158;2023-05-09T08:02:58;99754.47;;;19.16;65.02
34177;BME280;20450;49.074;9.158;2023-05-09T08:05:25;99748.56;;;19.34;63.74
34177;BME280;20450;49.074;9.158;2023-05-09T08:07:53;99747.03;;;19.06;64.80
34177;BME280;20450;49.074;9.158;2023-05-09T08:10:20;99748.09;;;19.00;65.29
34177;BME280;20450;49.074;9.158;2023-05-09T08:12:47;99754.81;;;18.78;66.46
34177;BME280;20450;49.074;9.158;2023-05-09T08:15:14;99747.50;;;18.83;65.53
34177;BME280;20450;49.074;9.158;2023-05-09T08:17:43;99739.97;;;19.25;64.45
34177;BME280;20450;49.074;9.158;2023-05-09T08:20:11;99734.13;;;19.99;63.38
34177;BME280;20450;49.074;9.158;2023-05-09T08:22:38;99740.16;;;19.81;62.22
34177;BME280;20450;49.074;9.158;2023-05-09T08:25:07;99725.13;;;20.23;61.60
34177;BME280;20450;49.074;9.158;2023-05-09T08:27:34;99725.91;;;19.74;61.80
34177;BME280;20450;49.074;9.158;2023-05-09T08:30:03;99733.28;;;19.63;62.59
34177;BME280;20450;49.074;9.158;2023-05-09T08:32:32;99725.09;;;20.03;61.51
34177;BME280;20450;49.074;9.158;2023-05-09T08:35:00;99718.25;;;20.31;60.22
34177;BME280;20450;49.074;9.158;2023-05-09T08:37:28;99717.41;;;20.45;59.63
34177;BME280;20450;49.074;9.158;2023-05-09T08:39:55;99707.25;;;20.36;58.17
34177;BME280;20450;49.074;9.158;2023-05-09T08:42:23;99701.16;;;20.69;57.63
34177;BME280;20450;49.074;9.158;2023-05-09T08:44:52;99701.66;;;20.86;55.88
34177;BME280;20450;49.074;9.158;2023-05-09T08:47:20;99689.97;;;21.29;57.58
34177;BME280;20450;49.074;9.158;2023-05-09T08:49:50;99693.47;;;21.83;55.39
34177;BME280;20450;49.074;9.158;2023-05-09T08:52:19;99700.09;;;21.77;56.73
34177;BME280;20450;49.074;9.158;2023-05-09T08:54:47;99693.53;;;21.68;56.30
34177;BME280;20450;49.074;9.158;2023-05-09T08:57:14;99694.84;;;21.86;55.49
34177;BME280;20450;49.074;9.158;2023-05-09T08:59:41;99683.69;;;21.62;56.00
34177;BME280;20450;49.074;9.158;2023-05-09T09:02:11;99686.19;;;21.97;55.70
34177;BME280;20450;49.074;9.158;2023-05-09T09:04:40;99688.16;;;22.54;54.72
34177;BME280;20450;49.074;9.158;2023-05-09T09:07:08;99690.56;;;22.60;53.50
34177;BME280;20450;49.074;9.158;2023-05-09T09:09:38;99681.38;;;22.70;53.03
34177;BME280;20450;49.074;9.158;2023-05-09T09:12:13;99685.75;;;21.85;55.50
34177;BME280;20450;49.074;9.158;2023-05-09T09:14:45;99672.94;;;21.22;55.62
34177;BME280;20450;49.074;9.158;2023-05-09T09:17:18;99677.66;;;21.16;55.42
34177;BME280;20450;49.074;9.158;2023-05-09T09:19:48;99668.78;;;20.71;57.06
34177;BME280;20450;49.074;9.158;2023-05-09T09:22:21;99670.41;;;20.72;57.34
34177;BME280;20450;49.074;9.158;2023-05-09T09:24:50;99667.78;;;21.10;56.50
34177;BME280;20450;49.074;9.158;2023-05-09T09:27:17;99664.88;;;20.82;57.42
34177;BME280;20450;49.074;9.158;2023-05-09T09:29:44;99659.09;;;20.83;56.51
34177;BME280;20450;49.074;9.158;2023-05-09T09:32:11;99659.72;;;20.65;58.17
34177;BME280;20450;49.074;9.158;2023-05-09T09:34:38;99652.69;;;21.08;58.34
34177;BME280;20450;49.074;9.158;2023-05-09T09:37:06;99648.09;;;20.83;58.12
34177;BME280;20450;49.074;9.158;2023-05-09T09:39:33;99642.00;;;20.03;60.07
34177;BME280;20450;49.074;9.158;2023-05-09T09:42:11;99637.56;;;20.47;59.17
34177;BME280;20450;49.074;9.158;2023-05-09T09:44:38;99618.53;;;20.70;59.79
34177;BME280;20450;49.074;9.158;2023-05-09T09:47:08;99619.81;;;20.98;58.51
34177;BME280;20450;49.074;9.158;2023-05-09T09:49:36;99629.13;;;20.23;58.95
34177;BME280;20450;49.074;9.158;2023-05-09T09:52:03;99617.72;;;20.65;58.32
34177;BME280;20450;49.074;9.158;2023-05-09T09:54:30;99610.56;;;20.74;57.80
34177;BME280;20450;49.074;9.158;2023-05-09T09:56:57;99610.28;;;21.24;56.52
34177;BME280;20450;49.074;9.158;2023-05-09T09:59:26;99605.88;;;21.28;56.11
34177;BME280;20450;49.074;9.158;2023-05-09T10:01:55;99598.72;;;21.32;56.52
34177;BME280;20450;49.074;9.158;2023-05-09T10:04:32;99601.41;;;21.71;55.59
34177;BME280;20450;49.074;9.158;2023-05-09T10:07:02;99599.66;;;21.85;55.24
34177;BME280;20450;49.074;9.158;2023-05-09T10:09:31;99588.56;;;21.61;54.00
34177;BME280;20450;49.074;9.158;2023-05-09T10:12:02;99588.03;;;21.59;55.28
34177;BME280;20450;49.074;9.158;2023-05-09T10:14:33;99583.66;;;21.92;54.33
34177;BME280;20450;49.074;9.158;2023-05-09T10:17:30;99568.09;;;22.95;50.70
34177;BME280;20450;49.074;9.158;2023-05-09T10:20:01;99559.91;;;23.46;49.26
34177;BME280;20450;49.074;9.158;2023-05-09T10:22:33;99557.16;;;22.90;51.15
34177;BME280;20450;49.074;9.158;2023-05-09T10:25:04;99543.75;;;23.39;50.64
34177;BME280;20450;49.074;9.158;2023-05-09T10:27:35;99537.72;;;23.18;49.18
34177;BME280;20450;49.074;9.158;2023-05-09T10:30:06;99539.78;;;22.52;50.73
34177;BME280;20450;49.074;9.158;2023-05-09T10:32:46;99529.28;;;22.54;50.58
34177;BME280;20450;49.074;9.158;2023-05-09T10:35:19;99533.13;;;23.33;49.05
34177;BME280;20450;49.074;9.158;2023-05-09T10:37:54;99526.31;;;23.44;47.85
34177;BME280;20450;49.074;9.158;2023-05-09T10:40:22;99515.91;;;23.86;47.16
34177;BME280;20450;49.074;9.158;2023-05-09T10:42:50;99520.91;;;23.01;48.13
34177;BME280;20450;49.074;9.158;2023-05-09T10:45:18;99517.03;;;22.65;49.36
34177;BME280;20450;49.074;9.158;2023-05-09T10:47:49;99510.94;;;22.68;49.39
34177;BME280;20450;49.074;9.158;2023-05-09T10:50:17;99504.22;;;23.30;48.65
34177;BME280;20450;49.074;9.158;2023-05-09T10:53:08;99504.13;;;23.94;46.50
34177;BME280;20450;49.074;9.158;2023-05-09T10:55:37;99507.22;;;23.47;48.19
34177;BME280;20450;49.074;9.158;2023-05-09T10:58:20;99494.41;;;23.70;47.38
34177;BME280;20450;49.074;9.158;2023-05-09T11:00:50;99494.63;;;23.73;46.16
34177;BME280;20450;49.074;9.158;2023-05-09T11:03:22;99489.59;;;23.11;47.86
34177;BME280;20450;49.074;9.158;2023-05-09T11:05:50;99477.25;;;23.08;48.45
34177;BME280;20450;49.074;9.158;2023-05-09T11:08:23;99477.56;;;23.26;48.84
34177;BME280;20450;49.074;9.158;2023-05-09T11:10:52;99476.31;;;23.64;46.93
34177;BME280;20450;49.074;9.158;2023-05-09T11:13:20;99457.25;;;23.67;46.70
34177;BME280;20450;49.074;9.158;2023-05-09T11:15:50;99457.28;;;23.16;47.07
34177;BME280;20450;49.074;9.158;2023-05-09T11:18:32;99456.53;;;23.30;48.20
34177;BME280;20450;49.074;9.158;2023-05-09T11:21:06;99449.59;;;24.05;46.23
34177;BME280;20450;49.074;9.158;2023-05-09T11:23:34;99446.81;;;23.78;45.57
34177;BME280;20450;49.074;9.158;2023-05-09T11:26:05;99439.50;;;22.58;47.17
34177;BME280;20450;49.074;9.158;2023-05-09T11:28:34;99436.94;;;23.12;47.57
34177;BME280;20450;49.074;9.158;2023-05-09T11:31:09;99430.94;;;23.43;46.55
34177;BME280;20450;49.074;9.158;2023-05-09T11:33:40;99417.81;;;23.21;46.79
34177;BME280;20450;49.074;9.158;2023-05-09T11:36:18;99423.28;;;23.07;46.94
34177;BME280;20450;49.074;9.158;2023-05-09T11:38:46;99426.38;;;23.19;46.47
34177;BME280;20450;49.074;9.158;2023-05-09T11:41:14;99416.34;;;23.56;45.75
34177;BME280;20450;49.074;9.158;2023-05-09T11:43:42;99410.34;;;23.21;45.29
34177;BME280;20450;49.074;9.158;2023-05-09T11:46:09;99398.59;;;23.89;43.81
34177;BME280;20450;49.074;9.158;2023-05-09T11:48:38;99401.22;;;23.40;44.15
34177;BME280;20450;49.074;9.158;2023-05-09T11:51:06;99393.91;;;23.76;44.67
34177;BME280;20450;49.074;9.158;2023-05-09T11:53:33;99393.28;;;23.92;45.97
34177;BME280;20450;49.074;9.158;2023-05-09T11:56:02;99382.56;;;23.64;44.91
34177;BME280;20450;49.074;9.158;2023-05-09T11:58:30;99392.75;;;23.50;45.91
34177;BME280;20450;49.074;9.158;2023-05-09T12:00:59;99383.13;;;23.34;45.34
34177;BME280;20450;49.074;9.158;2023-05-09T12:03:27;99370.81;;;23.12;45.60
34177;BME280;20450;49.074;9.158;2023-05-09T12:05:56;99362.31;;;22.95;46.72
34177;BME280;20450;49.074;9.158;2023-05-09T12:08:23;99370.13;;;22.88;46.37
34177;BME280;20450;49.074;9.158;2023-05-09T12:10:50;99372.09;;;22.88;46.43
34177;BME280;20450;49.074;9.158;2023-05-09T12:13:17;99360.88;;;22.98;47.24
34177;BME280;20450;49.074;9.158;2023-05-09T12:15:44;99363.69;;;23.11;46.45
34177;BME280;20450;49.074;9.158;2023-05-09T12:18:11;99353.19;;;22.81;46.50
34177;BME280;20450;49.074;9.158;2023-05-09T12:20:40;99341.72;;;23.06;46.84
34177;BME280;20450;49.074;9.158;2023-05-09T12:23:10;99339.22;;;22.78;46.92
34177;BME280;20450;49.074;9.158;2023-05-09T12:25:37;99337.44;;;23.14;47.59
34177;BME280;20450;49.074;9.158;2023-05-09T12:28:04;99338.31;;;23.28;45.48
34177;BME280;20450;49.074;9.158;2023-05-09T12:30:32;99330.25;;;23.72;46.00
34177;BME280;20450;49.074;9.158;2023-05-09T12:32:59;99321.19;;;23.45;45.78
34177;BME280;20450;49.074;9.158;2023-05-09T12:35:26;99322.03;;;23.81;45.69
34177;BME280;20450;49.074;9.158;2023-05-09T12:37:54;99319.41;;;23.89;44.65
34177;BME280;20450;49.074;9.158;2023-05-09T12:40:23;99312.34;;;23.83;45.25
34177;BME280;20450;49.074;9.158;2023-05-09T12:42:50;99303.19;;;23.34;46.46
34177;BME280;20450;49.074;9.158;2023-05-09T12:45:18;99300.28;;;23.11;46.60
34177;BME280;20450;49.074;9.158;2023-05-09T12:47:50;99303.84;;;22.85;46.90
34177;BME280;20450;49.074;9.158;2023-05-09T12:50:18;99299.59;;;23.19;46.93
34177;BME280;20450;49.074;9.158;2023-05-09T12:52:50;99296.09;;;23.00;46.69
34177;BME280;20450;49.074;9.158;2023-05-09T12:55:30;99282.75;;;23.07;46.80
34177;BME280;20450;49.074;9.158;2023-05-09T12:58:04;99280.88;;;22.89;46.19
34177;BME280;20450;49.074;9.158;2023-05-09T13:00:41;99275.56;;;22.93;47.64
34177;BME280;20450;49.074;9.158;2023-05-09T13:03:27;99274.81;;;23.19;46.37
34177;BME280;20450;49.074;9.158;2023-05-09T13:05:59;99257.53;;;23.00;47.23
34177;BME280;20450;49.074;9.158;2023-05-09T13:08:28;99256.19;;;22.98;47.73
34177;BME280;20450;49.074;9.158;2023-05-09T13:10:58;99252.63;;;22.97;47.42
34177;BME280;20450;49.074;9.158;2023-05-09T13:13:41;99240.19;;;22.86;49.19
34177;BME280;20450;49.074;9.158;2023-05-09T13:16:08;99249.28;;;23.28;49.34
34177;BME280;20450;49.074;9.158;2023-05-09T13:18:38;99244.44;;;22.79;46.55
34177;BME280;20450;49.074;9.158;2023-05-09T13:21:05;99241.66;;;22.65;47.29
34177;BME280;20450;49.074;9.158;2023-05-09T13:23:32;99224.88;;;22.80;47.60
34177;BME280;20450;49.074;9.158;2023-05-09T13:26:01;99221.69;;;23.00;47.68
34177;BME280;20450;49.074;9.158;2023-05-09T13:28:29;99224.34;;;22.78;48.21
34177;BME280;20450;49.074;9.158;2023-05-09T13:30:56;99217.44;;;22.81;46.85
34177;BME280;20450;49.074;9.158;2023-05-09T13:33:23;99213.88;;;22.94;47.60
34177;BME280;20450;49.074;9.158;2023-05-09T13:35:52;99212.34;;;23.01;46.99